sensor_id;sensor_type;location;lat;lon;timestamp;P1;durP1;ratioP1;P2;durP2;ratioP2
6023;SDS011;3040;42.654;23.296;2023-05-20T00:00:56;8.80;;;8.30;;
6023;SDS011;3040;42.654;23.296;2023-05-20T00:03:23;9.63;;;9.03;;
6023;SDS011;3040;42.654;23.296;2023-05-20T00:05:50;11.37;;;8.70;;
6023;SDS011;3040;42.654;23.296;2023-05-20T00:08:17;9.60;;;8.50;;
6023;SDS011;3040;42.654;23.296;2023-05-20T00:10:44;8.77;;;8.13;;
6023;SDS011;3040;42.654;23.296;2023-05-20T00:13:11;8.33;;;7.73;;
6023;SDS011;3040;42.654;23.296;2023-05-20T00:15:39;9.77;;;8.80;;
6023;SDS011;3040;42.654;23.296;2023-05-20T00:18:06;12.70;;;10.00;;
6023;SDS011;3040;42.654;23.296;2023-05-20T00:20:33;9.60;;;8.90;;
6023;SDS011;3040;42.654;23.296;2023-05-20T00:23:00;9.80;;;9.03;;
6023;SDS011;3040;42.654;23.296;2023-05-20T00:25:27;8.97;;;8.17;;
6023;SDS011;3040;42.654;23.296;2023-05-20T00:27:55;8.90;;;8.10;;
6023;SDS011;3040;42.654;23.296;2023-05-20T00:30:22;10.40;;;8.47;;
6023;SDS011;3040;42.654;23.296;2023-05-20T00:32:50;8.40;;;7.73;;
6023;SDS011;3040;42.654;23.296;2023-05-20T00:35:17;9.40;;;8.60;;
6023;SDS011;3040;42.654;23.296;2023-05-20T00:37:44;9.37;;;7.80;;
6023;SDS011;3040;42.654;23.296;2023-05-20T00:40:11;8.30;;;7.80;;
6023;SDS011;3040;42.654;23.296;2023-05-20T00:42:38;9.10;;;8.33;;
6023;SDS011;3040;42.654;23.296;2023-05-20T00:45:05;9.57;;;8.77;;
6023;SDS011;3040;42.654;23.296;2023-05-20T00:47:33;9.77;;;8.93;;
6023;SDS011;3040;42.654;23.296;2023-05-20T00:50:03;10.23;;;9.53;;
6023;SDS011;3040;42.654;23.296;2023-05-20T00:52:30;8.60;;;7.77;;
6023;SDS011;3040;42.654;23.296;2023-05-20T00:54:58;8.30;;;7.57;;
6023;SDS011;3040;42.654;23.296;2023-05-20T00:57:25;8.07;;;7.57;;
6023;SDS011;3040;42.654;23.296;2023-05-20T00:59:52;7.77;;;7.17;;
6023;SDS011;3040;42.654;23.296;2023-05-20T01:02:19;8.50;;;7.67;;
6023;SDS011;3040;42.654;23.296;2023-05-20T01:04:46;7.87;;;7.27;;
6023;SDS011;3040;42.654;23.296;2023-05-20T01:07:15;8.33;;;7.73;;
6023;SDS011;3040;42.654;23.296;2023-05-20T01:09:43;8.13;;;7.40;;
6023;SDS011;3040;42.654;23.296;2023-05-20T01:12:12;9.10;;;7.33;;
6023;SDS011;3040;42.654;23.296;2023-05-20T01:14:45;8.17;;;7.47;;
6023;SDS011;3040;42.654;23.296;2023-05-20T01:17:14;7.90;;;7.23;;
6023;SDS011;3040;42.654;23.296;2023-05-20T01:19:45;8.70;;;8.00;;
6023;SDS011;3040;42.654;23.296;2023-05-20T01:22:15;8.30;;;7.53;;
6023;SDS011;3040;42.654;23.296;2023-05-20T01:24:44;16.80;;;8.87;;
6023;SDS011;3040;42.654;23.296;2023-05-20T01:27:12;9.00;;;8.10;;
6023;SDS011;3040;42.654;23.296;2023-05-20T01:29:39;8.77;;;7.90;;
6023;SDS011;3040;42.654;23.296;2023-05-20T01:32:09;8.87;;;8.27;;
6023;SDS011;3040;42.654;23.296;2023-05-20T01:34:37;8.63;;;7.53;;
6023;SDS011;3040;42.654;23.296;2023-05-20T01:37:06;8.60;;;7.83;;
6023;SDS011;3040;42.654;23.296;2023-05-20T01:39:34;16.80;;;12.20;;
6023;SDS011;3040;42.654;23.296;2023-05-20T01:42:05;10.60;;;9.50;;
6023;SDS011;3040;42.654;23.296;2023-05-20T01:44:33;8.63;;;8.03;;
6023;SDS011;3040;42.654;23.296;2023-05-20T01:47:00;8.40;;;7.90;;
6023;SDS011;3040;42.654;23.296;2023-05-20T01:49:27;8.40;;;7.70;;
6023;SDS011;3040;42.654;23.296;2023-05-20T01:51:54;9.03;;;8.43;;
6023;SDS011;3040;42.654;23.296;2023-05-20T01:54:21;7.97;;;7.47;;
6023;SDS011;3040;42.654;23.296;2023-05-20T01:56:48;10.33;;;9.37;;
6023;SDS011;3040;42.654;23.296;2023-05-20T01:59:17;9.67;;;8.87;;
6023;SDS011;3040;42.654;23.296;2023-05-20T02:01:44;9.13;;;7.83;;
6023;SDS011;3040;42.654;23.296;2023-05-20T02:04:11;9.83;;;8.83;;
6023;SDS011;3040;42.654;23.296;2023-05-20T02:06:38;8.03;;;7.47;;
6023;SDS011;3040;42.654;23.296;2023-05-20T02:09:04;8.17;;;7.60;;
6023;SDS011;3040;42.654;23.296;2023-05-20T02:11:31;10.23;;;8.87;;
6023;SDS011;3040;42.654;23.296;2023-05-20T02:13:58;8.47;;;7.70;;
6023;SDS011;3040;42.654;23.296;2023-05-20T02:16:26;7.80;;;7.10;;
6023;SDS011;3040;42.654;23.296;2023-05-20T02:18:53;8.60;;;7.90;;
6023;SDS011;3040;42.654;23.296;2023-05-20T02:21:22;9.83;;;6.73;;
6023;SDS011;3040;42.654;23.296;2023-05-20T02:23:49;8.00;;;7.27;;
6023;SDS011;3040;42.654;23.296;2023-05-20T02:26:16;9.23;;;7.23;;
6023;SDS011;3040;42.654;23.296;2023-05-20T02:28:44;8.03;;;6.63;;
6023;SDS011;3040;42.654;23.296;2023-05-20T02:31:14;7.37;;;6.60;;
6023;SDS011;3040;42.654;23.296;2023-05-20T02:33:43;8.87;;;7.70;;
6023;SDS011;3040;42.654;23.296;2023-05-20T02:36:10;8.10;;;7.03;;
6023;SDS011;3040;42.654;23.296;2023-05-20T02:38:37;8.53;;;7.93;;
6023;SDS011;3040;42.654;23.296;2023-05-20T02:41:04;8.73;;;6.67;;
6023;SDS011;3040;42.654;23.296;2023-05-20T02:43:31;7.23;;;6.80;;
6023;SDS011;3040;42.654;23.296;2023-05-20T02:46:00;6.73;;;6.23;;
6023;SDS011;3040;42.654;23.296;2023-05-20T02:48:27;9.23;;;6.83;;
6023;SDS011;3040;42.654;23.296;2023-05-20T02:50:55;7.00;;;6.27;;
6023;SDS011;3040;42.654;23.296;2023-05-20T02:53:22;7.10;;;6.63;;
6023;SDS011;3040;42.654;23.296;2023-05-20T02:55:49;11.20;;;10.23;;
6023;SDS011;3040;42.654;23.296;2023-05-20T02:58:16;19.17;;;12.47;;
6023;SDS011;3040;42.654;23.296;2023-05-20T03:00:42;9.20;;;8.60;;
6023;SDS011;3040;42.654;23.296;2023-05-20T03:03:09;18.40;;;8.47;;
6023;SDS011;3040;42.654;23.296;2023-05-20T03:05:37;10.90;;;9.13;;
6023;SDS011;3040;42.654;23.296;2023-05-20T03:08:08;10.73;;;8.17;;
6023;SDS011;3040;42.654;23.296;2023-05-20T03:10:35;8.37;;;7.50;;
6023;SDS011;3040;42.654;23.296;2023-05-20T03:13:03;8.30;;;7.17;;
6023;SDS011;3040;42.654;23.296;2023-05-20T03:15:32;7.57;;;7.17;;
6023;SDS011;3040;42.654;23.296;2023-05-20T03:17:59;7.87;;;7.13;;
6023;SDS011;3040;42.654;23.296;2023-05-20T03:20:26;7.10;;;6.70;;
6023;SDS011;3040;42.654;23.296;2023-05-20T03:22:54;7.27;;;6.63;;
6023;SDS011;3040;42.654;23.296;2023-05-20T03:25:23;8.10;;;6.83;;
6023;SDS011;3040;42.654;23.296;2023-05-20T03:27:50;7.93;;;7.00;;
6023;SDS011;3040;42.654;23.296;2023-05-20T03:30:17;7.30;;;6.63;;
6023;SDS011;3040;42.654;23.296;2023-05-20T03:32:44;7.73;;;6.87;;
6023;SDS011;3040;42.654;23.296;2023-05-20T03:35:10;8.43;;;7.70;;
6023;SDS011;3040;42.654;23.296;2023-05-20T03:37:37;8.43;;;7.67;;
6023;SDS011;3040;42.654;23.296;2023-05-20T03:40:06;8.53;;;7.67;;
6023;SDS011;3040;42.654;23.296;2023-05-20T03:42:35;8.73;;;7.83;;
6023;SDS011;3040;42.654;23.296;2023-05-20T03:45:03;11.13;;;7.57;;
6023;SDS011;3040;42.654;23.296;2023-05-20T03:47:31;6.57;;;6.20;;
6023;SDS011;3040;42.654;23.296;2023-05-20T03:49:57;11.23;;;7.43;;
6023;SDS011;3040;42.654;23.296;2023-05-20T03:52:24;9.90;;;7.50;;
6023;SDS011;3040;42.654;23.296;2023-05-20T03:54:52;8.47;;;7.50;;
6023;SDS011;3040;42.654;23.296;2023-05-20T03:57:18;6.83;;;6.30;;
6023;SDS011;3040;42.654;23.296;2023-05-20T03:59:47;7.43;;;6.93;;
6023;SDS011;3040;42.654;23.296;2023-05-20T04:02:13;9.50;;;7.00;;
6023;SDS011;3040;42.654;23.296;2023-05-20T04:04:40;7.87;;;6.80;;
6023;SDS011;3040;42.654;23.296;2023-05-20T04:07:07;9.93;;;7.07;;
6023;SDS011;3040;42.654;23.296;2023-05-20T04:09:34;9.03;;;7.83;;
6023;SDS011;3040;42.654;23.296;2023-05-20T04:12:01;10.97;;;7.33;;
6023;SDS011;3040;42.654;23.296;2023-05-20T04:14:28;12.67;;;11.57;;
6023;SDS011;3040;42.654;23.296;2023-05-20T04:16:56;12.27;;;10.00;;
6023;SDS011;3040;42.654;23.296;2023-05-20T04:19:23;12.90;;;8.60;;
6023;SDS011;3040;42.654;23.296;2023-05-20T04:21:52;10.93;;;10.03;;
6023;SDS011;3040;42.654;23.296;2023-05-20T04:24:19;14.77;;;11.07;;
6023;SDS011;3040;42.654;23.296;2023-05-20T04:26:49;15.80;;;10.70;;
6023;SDS011;3040;42.654;23.296;2023-05-20T04:29:17;29.87;;;26.30;;
6023;SDS011;3040;42.654;23.296;2023-05-20T04:31:44;15.10;;;14.03;;
6023;SDS011;3040;42.654;23.296;2023-05-20T04:34:13;14.27;;;12.87;;
6023;SDS011;3040;42.654;23.296;2023-05-20T04:36:43;14.00;;;12.83;;
6023;SDS011;3040;42.654;23.296;2023-05-20T04:39:10;12.47;;;11.00;;
6023;SDS011;3040;42.654;23.296;2023-05-20T04:41:38;12.67;;;11.60;;
6023;SDS011;3040;42.654;23.296;2023-05-20T04:44:04;12.87;;;11.60;;
6023;SDS011;3040;42.654;23.296;2023-05-20T04:46:31;36.23;;;18.53;;
6023;SDS011;3040;42.654;23.296;2023-05-20T04:48:59;22.57;;;15.17;;
6023;SDS011;3040;42.654;23.296;2023-05-20T04:51:27;21.80;;;13.67;;
6023;SDS011;3040;42.654;23.296;2023-05-20T04:53:54;24.43;;;13.43;;
6023;SDS011;3040;42.654;23.296;2023-05-20T04:56:23;12.37;;;11.17;;
6023;SDS011;3040;42.654;23.296;2023-05-20T04:58:50;16.10;;;13.20;;
6023;SDS011;3040;42.654;23.296;2023-05-20T05:01:17;13.33;;;12.10;;
6023;SDS011;3040;42.654;23.296;2023-05-20T05:03:44;12.90;;;11.70;;
6023;SDS011;3040;42.654;23.296;2023-05-20T05:06:11;14.83;;;13.37;;
6023;SDS011;3040;42.654;23.296;2023-05-20T05:08:39;15.30;;;12.87;;
6023;SDS011;3040;42.654;23.296;2023-05-20T05:11:06;30.27;;;15.80;;
6023;SDS011;3040;42.654;23.296;2023-05-20T05:13:33;13.43;;;11.80;;
6023;SDS011;3040;42.654;23.296;2023-05-20T05:16:00;14.17;;;12.73;;
6023;SDS011;3040;42.654;23.296;2023-05-20T05:18:28;28.37;;;17.70;;
6023;SDS011;3040;42.654;23.296;2023-05-20T05:20:58;28.30;;;15.60;;
6023;SDS011;3040;42.654;23.296;2023-05-20T05:23:26;33.70;;;18.13;;
6023;SDS011;3040;42.654;23.296;2023-05-20T05:25:54;11.73;;;10.77;;
6023;SDS011;3040;42.654;23.296;2023-05-20T05:28:21;13.10;;;11.90;;
6023;SDS011;3040;42.654;23.296;2023-05-20T05:30:48;12.30;;;10.80;;
6023;SDS011;3040;42.654;23.296;2023-05-20T05:33:15;22.10;;;12.77;;
6023;SDS011;3040;42.654;23.296;2023-05-20T05:35:42;27.93;;;15.30;;
6023;SDS011;3040;42.654;23.296;2023-05-20T05:38:09;17.73;;;13.77;;
6023;SDS011;3040;42.654;23.296;2023-05-20T05:40:36;16.87;;;11.77;;
6023;SDS011;3040;42.654;23.296;2023-05-20T05:43:04;11.07;;;9.97;;
6023;SDS011;3040;42.654;23.296;2023-05-20T05:45:31;14.00;;;10.83;;
6023;SDS011;3040;42.654;23.296;2023-05-20T05:47:58;12.50;;;10.57;;
6023;SDS011;3040;42.654;23.296;2023-05-20T05:50:25;16.70;;;10.47;;
6023;SDS011;3040;42.654;23.296;2023-05-20T05:52:52;15.57;;;11.00;;
6023;SDS011;3040;42.654;23.296;2023-05-20T05:55:19;14.33;;;10.57;;
6023;SDS011;3040;42.654;23.296;2023-05-20T05:57:48;12.73;;;10.93;;
6023;SDS011;3040;42.654;23.296;2023-05-20T06:00:17;10.53;;;9.57;;
6023;SDS011;3040;42.654;23.296;2023-05-20T06:02:44;18.87;;;10.97;;
6023;SDS011;3040;42.654;23.296;2023-05-20T06:05:11;15.77;;;10.37;;
6023;SDS011;3040;42.654;23.296;2023-05-20T06:07:38;10.27;;;9.23;;
6023;SDS011;3040;42.654;23.296;2023-05-20T06:10:05;10.57;;;9.47;;
6023;SDS011;3040;42.654;23.296;2023-05-20T06:12:32;12.27;;;9.93;;
6023;SDS011;3040;42.654;23.296;2023-05-20T06:14:59;10.17;;;9.37;;
6023;SDS011;3040;42.654;23.296;2023-05-20T06:17:27;9.40;;;8.47;;
6023;SDS011;3040;42.654;23.296;2023-05-20T06:19:54;14.63;;;8.97;;
6023;SDS011;3040;42.654;23.296;2023-05-20T06:22:21;11.50;;;9.20;;
6023;SDS011;3040;42.654;23.296;2023-05-20T06:24:47;9.70;;;8.63;;
6023;SDS011;3040;42.654;23.296;2023-05-20T06:27:14;8.87;;;8.10;;
6023;SDS011;3040;42.654;23.296;2023-05-20T06:29:41;10.63;;;8.23;;
6023;SDS011;3040;42.654;23.296;2023-05-20T06:32:08;9.23;;;8.27;;
6023;SDS011;3040;42.654;23.296;2023-05-20T06:34:36;11.53;;;9.30;;
6023;SDS011;3040;42.654;23.296;2023-05-20T06:37:03;9.20;;;7.90;;
6023;SDS011;3040;42.654;23.296;2023-05-20T06:39:30;7.47;;;7.00;;
6023;SDS011;3040;42.654;23.296;2023-05-20T06:41:57;11.63;;;8.37;;
6023;SDS011;3040;42.654;23.296;2023-05-20T06:44:24;24.80;;;7.77;;
6023;SDS011;3040;42.654;23.296;2023-05-20T06:46:51;8.20;;;7.40;;
6023;SDS011;3040;42.654;23.296;2023-05-20T06:49:17;8.33;;;7.53;;
6023;SDS011;3040;42.654;23.296;2023-05-20T06:51:46;7.93;;;6.33;;
6023;SDS011;3040;42.654;23.296;2023-05-20T06:54:13;6.17;;;5.67;;
6023;SDS011;3040;42.654;23.296;2023-05-20T06:56:40;5.93;;;5.33;;
6023;SDS011;3040;42.654;23.296;2023-05-20T06:59:08;8.83;;;5.33;;
6023;SDS011;3040;42.654;23.296;2023-05-20T07:01:35;5.73;;;5.23;;
6023;SDS011;3040;42.654;23.296;2023-05-20T07:04:01;6.30;;;5.67;;
6023;SDS011;3040;42.654;23.296;2023-05-20T07:06:28;5.77;;;5.37;;
6023;SDS011;3040;42.654;23.296;2023-05-20T07:08:57;7.00;;;6.40;;
6023;SDS011;3040;42.654;23.296;2023-05-20T07:11:23;9.80;;;8.83;;
6023;SDS011;3040;42.654;23.296;2023-05-20T07:13:50;6.30;;;5.83;;
6023;SDS011;3040;42.654;23.296;2023-05-20T07:16:17;5.60;;;5.20;;
6023;SDS011;3040;42.654;23.296;2023-05-20T07:18:44;6.47;;;6.17;;
6023;SDS011;3040;42.654;23.296;2023-05-20T07:21:11;6.63;;;6.33;;
6023;SDS011;3040;42.654;23.296;2023-05-20T07:23:38;10.50;;;5.93;;
6023;SDS011;3040;42.654;23.296;2023-05-20T07:26:06;7.67;;;6.33;;
6023;SDS011;3040;42.654;23.296;2023-05-20T07:28:33;5.80;;;5.40;;
6023;SDS011;3040;42.654;23.296;2023-05-20T07:31:00;7.23;;;5.50;;
6023;SDS011;3040;42.654;23.296;2023-05-20T07:33:27;6.53;;;5.90;;
6023;SDS011;3040;42.654;23.296;2023-05-20T07:35:54;10.93;;;6.57;;
6023;SDS011;3040;42.654;23.296;2023-05-20T07:38:21;14.80;;;6.50;;
6023;SDS011;3040;42.654;23.296;2023-05-20T07:40:48;5.90;;;5.50;;
6023;SDS011;3040;42.654;23.296;2023-05-20T07:43:16;6.20;;;5.60;;
6023;SDS011;3040;42.654;23.296;2023-05-20T07:45:43;6.53;;;5.90;;
6023;SDS011;3040;42.654;23.296;2023-05-20T07:48:10;5.73;;;5.33;;
6023;SDS011;3040;42.654;23.296;2023-05-20T07:50:37;9.73;;;5.57;;
6023;SDS011;3040;42.654;23.296;2023-05-20T07:53:04;14.97;;;6.53;;
6023;SDS011;3040;42.654;23.296;2023-05-20T07:55:32;6.97;;;5.97;;
6023;SDS011;3040;42.654;23.296;2023-05-20T07:57:59;5.83;;;5.40;;
6023;SDS011;3040;42.654;23.296;2023-05-20T08:00:27;6.00;;;5.60;;
6023;SDS011;3040;42.654;23.296;2023-05-20T08:02:54;5.90;;;5.40;;
6023;SDS011;3040;42.654;23.296;2023-05-20T08:05:21;6.47;;;6.03;;
6023;SDS011;3040;42.654;23.296;2023-05-20T08:07:48;8.20;;;6.23;;
6023;SDS011;3040;42.654;23.296;2023-05-20T08:10:15;10.10;;;6.63;;
6023;SDS011;3040;42.654;23.296;2023-05-20T08:12:42;6.20;;;5.70;;
6023;SDS011;3040;42.654;23.296;2023-05-20T08:15:09;5.83;;;5.43;;
6023;SDS011;3040;42.654;23.296;2023-05-20T08:17:38;6.33;;;5.87;;
6023;SDS011;3040;42.654;23.296;2023-05-20T08:20:05;6.30;;;5.80;;
6023;SDS011;3040;42.654;23.296;2023-05-20T08:22:34;6.40;;;5.87;;
6023;SDS011;3040;42.654;23.296;2023-05-20T08:25:02;6.47;;;6.00;;
6023;SDS011;3040;42.654;23.296;2023-05-20T08:27:29;9.70;;;6.23;;
6023;SDS011;3040;42.654;23.296;2023-05-20T08:29:56;10.50;;;6.97;;
6023;SDS011;3040;42.654;23.296;2023-05-20T08:32:23;8.63;;;6.60;;
6023;SDS011;3040;42.654;23.296;2023-05-20T08:34:51;8.37;;;6.07;;
6023;SDS011;3040;42.654;23.296;2023-05-20T08:37:18;7.30;;;6.17;;
6023;SDS011;3040;42.654;23.296;2023-05-20T08:39:45;7.47;;;6.57;;
6023;SDS011;3040;42.654;23.296;2023-05-20T08:42:13;8.83;;;6.27;;
6023;SDS011;3040;42.654;23.296;2023-05-20T08:44:40;6.53;;;5.97;;
6023;SDS011;3040;42.654;23.296;2023-05-20T08:47:08;7.00;;;6.40;;
6023;SDS011;3040;42.654;23.296;2023-05-20T08:49:36;6.73;;;6.30;;
6023;SDS011;3040;42.654;23.296;2023-05-20T08:52:04;7.53;;;7.13;;
6023;SDS011;3040;42.654;23.296;2023-05-20T08:54:36;9.43;;;8.73;;
6023;SDS011;3040;42.654;23.296;2023-05-20T08:57:10;11.97;;;6.60;;
6023;SDS011;3040;42.654;23.296;2023-05-20T08:59:38;7.70;;;7.10;;
6023;SDS011;3040;42.654;23.296;2023-05-20T09:02:07;6.93;;;6.53;;
6023;SDS011;3040;42.654;23.296;2023-05-20T09:04:34;7.50;;;6.73;;
6023;SDS011;3040;42.654;23.296;2023-05-20T09:07:01;8.87;;;6.10;;
6023;SDS011;3040;42.654;23.296;2023-05-20T09:09:30;8.63;;;6.63;;
6023;SDS011;3040;42.654;23.296;2023-05-20T09:11:59;11.80;;;6.33;;
6023;SDS011;3040;42.654;23.296;2023-05-20T09:14:27;12.53;;;6.70;;
6023;SDS011;3040;42.654;23.296;2023-05-20T09:16:54;6.03;;;5.57;;
6023;SDS011;3040;42.654;23.296;2023-05-20T09:19:21;10.63;;;6.43;;
6023;SDS011;3040;42.654;23.296;2023-05-20T09:21:49;6.37;;;6.07;;
6023;SDS011;3040;42.654;23.296;2023-05-20T09:24:19;6.77;;;6.20;;
6023;SDS011;3040;42.654;23.296;2023-05-20T09:26:49;6.87;;;5.90;;
6023;SDS011;3040;42.654;23.296;2023-05-20T09:29:16;7.63;;;6.60;;
6023;SDS011;3040;42.654;23.296;2023-05-20T09:31:45;8.93;;;5.87;;
6023;SDS011;3040;42.654;23.296;2023-05-20T09:34:12;8.97;;;6.67;;
6023;SDS011;3040;42.654;23.296;2023-05-20T09:36:39;7.60;;;6.40;;
6023;SDS011;3040;42.654;23.296;2023-05-20T09:39:10;6.87;;;6.37;;
6023;SDS011;3040;42.654;23.296;2023-05-20T09:41:42;6.60;;;6.13;;
6023;SDS011;3040;42.654;23.296;2023-05-20T09:44:16;6.87;;;6.40;;
6023;SDS011;3040;42.654;23.296;2023-05-20T09:46:44;6.67;;;6.17;;
6023;SDS011;3040;42.654;23.296;2023-05-20T09:49:13;6.10;;;5.80;;
6023;SDS011;3040;42.654;23.296;2023-05-20T09:51:42;8.30;;;6.27;;
6023;SDS011;3040;42.654;23.296;2023-05-20T09:54:09;9.10;;;6.53;;
6023;SDS011;3040;42.654;23.296;2023-05-20T09:59:06;6.60;;;6.03;;
6023;SDS011;3040;42.654;23.296;2023-05-20T10:01:35;17.77;;;6.40;;
6023;SDS011;3040;42.654;23.296;2023-05-20T10:04:03;6.03;;;5.60;;
6023;SDS011;3040;42.654;23.296;2023-05-20T10:06:40;6.47;;;5.93;;
6023;SDS011;3040;42.654;23.296;2023-05-20T10:09:25;8.70;;;6.20;;
6023;SDS011;3040;42.654;23.296;2023-05-20T10:12:03;8.00;;;6.27;;
6023;SDS011;3040;42.654;23.296;2023-05-20T10:14:51;6.63;;;6.07;;
6023;SDS011;3040;42.654;23.296;2023-05-20T10:17:36;10.30;;;6.83;;
6023;SDS011;3040;42.654;23.296;2023-05-20T10:20:10;5.80;;;5.20;;
6023;SDS011;3040;42.654;23.296;2023-05-20T10:22:37;5.77;;;5.40;;
6023;SDS011;3040;42.654;23.296;2023-05-20T10:25:05;6.63;;;5.43;;
6023;SDS011;3040;42.654;23.296;2023-05-20T10:27:41;5.67;;;5.47;;
6023;SDS011;3040;42.654;23.296;2023-05-20T10:30:18;5.37;;;5.07;;
6023;SDS011;3040;42.654;23.296;2023-05-20T10:32:52;6.07;;;5.10;;
6023;SDS011;3040;42.654;23.296;2023-05-20T10:35:21;6.03;;;5.63;;
6023;SDS011;3040;42.654;23.296;2023-05-20T10:37:51;4.00;;;3.80;;
6023;SDS011;3040;42.654;23.296;2023-05-20T10:40:19;11.77;;;4.77;;
6023;SDS011;3040;42.654;23.296;2023-05-20T10:42:47;5.00;;;4.60;;
6023;SDS011;3040;42.654;23.296;2023-05-20T10:45:24;4.07;;;3.77;;
6023;SDS011;3040;42.654;23.296;2023-05-20T10:47:56;7.60;;;4.53;;
6023;SDS011;3040;42.654;23.296;2023-05-20T10:50:27;4.10;;;3.77;;
6023;SDS011;3040;42.654;23.296;2023-05-20T10:53:02;4.27;;;3.80;;
6023;SDS011;3040;42.654;23.296;2023-05-20T10:55:34;3.90;;;3.67;;
6023;SDS011;3040;42.654;23.296;2023-05-20T10:58:03;5.37;;;4.93;;
6023;SDS011;3040;42.654;23.296;2023-05-20T11:00:30;4.07;;;3.87;;
6023;SDS011;3040;42.654;23.296;2023-05-20T11:02:58;4.90;;;4.00;;
6023;SDS011;3040;42.654;23.296;2023-05-20T11:05:25;5.27;;;4.30;;
6023;SDS011;3040;42.654;23.296;2023-05-20T11:07:59;4.17;;;3.97;;
6023;SDS011;3040;42.654;23.296;2023-05-20T11:10:26;4.13;;;3.93;;
6023;SDS011;3040;42.654;23.296;2023-05-20T11:12:53;4.93;;;4.57;;
6023;SDS011;3040;42.654;23.296;2023-05-20T11:15:21;4.47;;;4.17;;
6023;SDS011;3040;42.654;23.296;2023-05-20T11:17:52;5.80;;;4.73;;
6023;SDS011;3040;42.654;23.296;2023-05-20T11:20:21;8.87;;;4.70;;
6023;SDS011;3040;42.654;23.296;2023-05-20T11:22:48;7.13;;;4.63;;
6023;SDS011;3040;42.654;23.296;2023-05-20T11:25:15;4.70;;;4.50;;
6023;SDS011;3040;42.654;23.296;2023-05-20T11:27:42;5.03;;;4.60;;
6023;SDS011;3040;42.654;23.296;2023-05-20T11:30:10;4.50;;;4.30;;
6023;SDS011;3040;42.654;23.296;2023-05-20T11:32:40;5.30;;;4.87;;
6023;SDS011;3040;42.654;23.296;2023-05-20T11:35:07;4.73;;;4.43;;
6023;SDS011;3040;42.654;23.296;2023-05-20T11:37:53;5.70;;;4.77;;
6023;SDS011;3040;42.654;23.296;2023-05-20T11:40:26;5.63;;;5.23;;
6023;SDS011;3040;42.654;23.296;2023-05-20T11:42:54;6.30;;;4.97;;
6023;SDS011;3040;42.654;23.296;2023-05-20T11:45:21;6.27;;;5.83;;
6023;SDS011;3040;42.654;23.296;2023-05-20T11:47:58;5.37;;;4.70;;
6023;SDS011;3040;42.654;23.296;2023-05-20T11:50:26;6.60;;;5.47;;
6023;SDS011;3040;42.654;23.296;2023-05-20T11:52:58;4.57;;;4.37;;
6023;SDS011;3040;42.654;23.296;2023-05-20T11:55:26;6.00;;;5.70;;
6023;SDS011;3040;42.654;23.296;2023-05-20T11:57:53;5.73;;;5.33;;
6023;SDS011;3040;42.654;23.296;2023-05-20T12:00:20;5.33;;;4.87;;
6023;SDS011;3040;42.654;23.296;2023-05-20T12:02:48;6.17;;;4.53;;
6023;SDS011;3040;42.654;23.296;2023-05-20T12:05:15;10.17;;;5.33;;
6023;SDS011;3040;42.654;23.296;2023-05-20T12:07:42;5.50;;;4.80;;
6023;SDS011;3040;42.654;23.296;2023-05-20T12:10:10;5.23;;;4.93;;
6023;SDS011;3040;42.654;23.296;2023-05-20T12:12:37;5.20;;;4.80;;
6023;SDS011;3040;42.654;23.296;2023-05-20T12:15:05;5.30;;;4.90;;
6023;SDS011;3040;42.654;23.296;2023-05-20T12:17:42;8.33;;;5.30;;
6023;SDS011;3040;42.654;23.296;2023-05-20T12:20:10;5.73;;;5.53;;
6023;SDS011;3040;42.654;23.296;2023-05-20T12:22:38;5.83;;;5.53;;
6023;SDS011;3040;42.654;23.296;2023-05-20T12:25:05;5.20;;;4.77;;
6023;SDS011;3040;42.654;23.296;2023-05-20T12:27:34;4.77;;;4.53;;
6023;SDS011;3040;42.654;23.296;2023-05-20T12:30:01;5.10;;;4.70;;
6023;SDS011;3040;42.654;23.296;2023-05-20T12:32:28;5.57;;;5.03;;
6023;SDS011;3040;42.654;23.296;2023-05-20T12:34:54;6.03;;;4.63;;
6023;SDS011;3040;42.654;23.296;2023-05-20T12:37:21;3.47;;;3.20;;
6023;SDS011;3040;42.654;23.296;2023-05-20T12:39:48;4.60;;;4.20;;
6023;SDS011;3040;42.654;23.296;2023-05-20T12:42:15;4.70;;;4.00;;
6023;SDS011;3040;42.654;23.296;2023-05-20T12:44:43;6.07;;;3.07;;
6023;SDS011;3040;42.654;23.296;2023-05-20T12:47:10;3.77;;;3.57;;
6023;SDS011;3040;42.654;23.296;2023-05-20T12:49:36;4.43;;;3.73;;
6023;SDS011;3040;42.654;23.296;2023-05-20T12:52:04;4.27;;;4.07;;
6023;SDS011;3040;42.654;23.296;2023-05-20T12:54:31;4.30;;;3.90;;
6023;SDS011;3040;42.654;23.296;2023-05-20T12:56:58;3.80;;;3.33;;
6023;SDS011;3040;42.654;23.296;2023-05-20T12:59:24;4.50;;;3.40;;
6023;SDS011;3040;42.654;23.296;2023-05-20T13:01:53;3.47;;;3.17;;
6023;SDS011;3040;42.654;23.296;2023-05-20T13:04:19;3.23;;;3.13;;
6023;SDS011;3040;42.654;23.296;2023-05-20T13:06:46;4.03;;;3.40;;
6023;SDS011;3040;42.654;23.296;2023-05-20T13:09:13;3.70;;;3.60;;
6023;SDS011;3040;42.654;23.296;2023-05-20T13:11:40;4.03;;;3.80;;
6023;SDS011;3040;42.654;23.296;2023-05-20T13:14:06;3.90;;;3.13;;
6023;SDS011;3040;42.654;23.296;2023-05-20T13:16:33;3.57;;;3.37;;
6023;SDS011;3040;42.654;23.296;2023-05-20T13:19:02;3.03;;;2.90;;
6023;SDS011;3040;42.654;23.296;2023-05-20T13:21:28;3.73;;;3.20;;
6023;SDS011;3040;42.654;23.296;2023-05-20T13:23:55;3.27;;;3.07;;
6023;SDS011;3040;42.654;23.296;2023-05-20T13:26:22;2.87;;;2.77;;
6023;SDS011;3040;42.654;23.296;2023-05-20T13:28:49;2.63;;;2.50;;
6023;SDS011;3040;42.654;23.296;2023-05-20T13:31:16;3.23;;;2.93;;
6023;SDS011;3040;42.654;23.296;2023-05-20T13:33:43;3.63;;;3.43;;
6023;SDS011;3040;42.654;23.296;2023-05-20T13:36:11;3.00;;;2.90;;
6023;SDS011;3040;42.654;23.296;2023-05-20T13:38:38;3.23;;;2.97;;
6023;SDS011;3040;42.654;23.296;2023-05-20T13:41:05;3.97;;;3.77;;
6023;SDS011;3040;42.654;23.296;2023-05-20T13:43:32;3.63;;;3.33;;
6023;SDS011;3040;42.654;23.296;2023-05-20T13:45:59;4.27;;;3.97;;
6023;SDS011;3040;42.654;23.296;2023-05-20T13:48:26;4.23;;;3.93;;
6023;SDS011;3040;42.654;23.296;2023-05-20T13:50:53;3.70;;;3.50;;
6023;SDS011;3040;42.654;23.296;2023-05-20T13:53:21;3.87;;;3.67;;
6023;SDS011;3040;42.654;23.296;2023-05-20T13:55:48;4.13;;;3.83;;
6023;SDS011;3040;42.654;23.296;2023-05-20T13:58:15;3.53;;;3.33;;
6023;SDS011;3040;42.654;23.296;2023-05-20T14:00:42;3.13;;;2.93;;
6023;SDS011;3040;42.654;23.296;2023-05-20T14:03:08;4.73;;;3.53;;
6023;SDS011;3040;42.654;23.296;2023-05-20T14:05:35;4.17;;;3.57;;
6023;SDS011;3040;42.654;23.296;2023-05-20T14:08:02;4.43;;;4.23;;
6023;SDS011;3040;42.654;23.296;2023-05-20T14:10:31;3.93;;;3.80;;
6023;SDS011;3040;42.654;23.296;2023-05-20T14:12:58;3.40;;;3.10;;
6023;SDS011;3040;42.654;23.296;2023-05-20T14:15:26;3.50;;;3.40;;
6023;SDS011;3040;42.654;23.296;2023-05-20T14:17:54;3.30;;;3.10;;
6023;SDS011;3040;42.654;23.296;2023-05-20T14:20:22;4.03;;;3.73;;
6023;SDS011;3040;42.654;23.296;2023-05-20T14:22:49;6.23;;;4.30;;
6023;SDS011;3040;42.654;23.296;2023-05-20T14:25:15;3.60;;;3.40;;
6023;SDS011;3040;42.654;23.296;2023-05-20T14:27:44;3.60;;;3.40;;
6023;SDS011;3040;42.654;23.296;2023-05-20T14:30:11;4.57;;;4.00;;
6023;SDS011;3040;42.654;23.296;2023-05-20T14:32:38;4.20;;;3.90;;
6023;SDS011;3040;42.654;23.296;2023-05-20T14:35:06;4.13;;;3.93;;
6023;SDS011;3040;42.654;23.296;2023-05-20T14:37:33;4.30;;;4.10;;
6023;SDS011;3040;42.654;23.296;2023-05-20T14:40:00;5.13;;;4.30;;
6023;SDS011;3040;42.654;23.296;2023-05-20T14:42:27;4.47;;;4.27;;
6023;SDS011;3040;42.654;23.296;2023-05-20T14:44:55;5.13;;;4.73;;
6023;SDS011;3040;42.654;23.296;2023-05-20T14:47:22;5.70;;;5.23;;
6023;SDS011;3040;42.654;23.296;2023-05-20T14:49:50;5.37;;;4.87;;
6023;SDS011;3040;42.654;23.296;2023-05-20T14:52:17;5.67;;;5.13;;
6023;SDS011;3040;42.654;23.296;2023-05-20T14:54:44;4.97;;;4.63;;
6023;SDS011;3040;42.654;23.296;2023-05-20T14:57:11;5.40;;;5.10;;
6023;SDS011;3040;42.654;23.296;2023-05-20T14:59:38;5.23;;;4.43;;
6023;SDS011;3040;42.654;23.296;2023-05-20T15:02:06;5.03;;;4.60;;